Time;durP1;ratioP1;P1;durP2;ratioP2;P2;SDS_P1;SDS_P2;PMS_P1;PMS_P2;Temp;Humidity;BMP_temperature;BMP_pressure;BME280_temperature;BME280_humidity;BME280_pressure;Samples;Min_cycle;Max_cycle;Signal;HPM_P1;HPM_P2
2022/01/29 00:01:33;;;;;;;7.82;3.80;;;;;;;-1.37;78.84;91179.44;5092072;28;20023;-66
2022/01/29 00:03:59;;;;;;;5.38;3.60;;;;;;;-1.29;78.01;91176.47;5073746;28;20036;-66
2022/01/29 00:06:25;;;;;;;8.77;4.10;;;;;;;-1.25;76.78;91175.00;5091713;28;20180;-66
2022/01/29 00:08:56;;;;;;;8.15;4.10;;;;;;;-1.15;76.13;91180.41;5091846;28;20099;-66
2022/01/29 00:11:27;;;;;;;8.15;4.50;;;;;;;-1.08;75.31;91172.44;5091855;28;20401;-66
2022/01/29 00:13:53;;;;;;;6.00;3.00;;;;;;;-0.98;73.93;91175.22;5091698;28;20020;-66
2022/01/29 00:16:18;;;;;;;7.90;4.55;;;;;;;-0.89;73.03;91170.44;5091737;28;20406;-64
2022/01/29 00:18:44;;;;;;;7.20;4.00;;;;;;;-0.83;71.70;91182.53;5091753;28;20024;-65
2022/01/29 00:21:10;;;;;;;4.85;3.03;;;;;;;-0.81;71.54;91176.06;5091729;28;20111;-66
2022/01/29 00:23:35;;;;;;;7.07;3.78;;;;;;;-0.74;70.11;91174.13;5090562;28;20036;-65
2022/01/29 00:26:01;;;;;;;6.13;3.65;;;;;;;-0.73;69.63;91180.91;5091542;28;20458;-66
2022/01/29 00:28:27;;;;;;;5.20;2.47;;;;;;;-0.87;70.37;91179.63;5091559;28;20020;-66
2022/01/29 00:30:53;;;;;;;10.10;4.00;;;;;;;-0.80;70.72;91189.91;5091767;28;20413;-66
2022/01/29 00:33:18;;;;;;;6.13;3.45;;;;;;;-0.81;70.46;91177.88;5091342;28;20020;-64
2022/01/29 00:35:44;;;;;;;5.38;3.10;;;;;;;-0.83;71.47;91187.78;5091435;28;20043;-66
2022/01/29 00:38:10;;;;;;;8.55;3.90;;;;;;;-0.89;72.25;91173.03;5091466;28;20456;-65
2022/01/29 00:40:37;;;;;;;5.43;3.05;;;;;;;-0.98;72.72;91178.63;5091322;28;20028;-65
2022/01/29 00:43:04;;;;;;;7.20;3.33;;;;;;;-0.93;72.57;91173.53;5091178;28;20497;-65
2022/01/29 00:45:31;;;;;;;9.50;3.88;;;;;;;-0.88;71.77;91177.25;5091295;28;20036;-65
2022/01/29 00:47:57;;;;;;;6.38;3.33;;;;;;;-0.78;71.05;91177.44;5091359;28;20055;-65
2022/01/29 00:50:22;;;;;;;3.85;2.70;;;;;;;-0.75;71.21;91176.97;5091203;28;20070;-65
2022/01/29 00:52:48;;;;;;;6.35;2.65;;;;;;;-0.78;71.69;91169.59;5091092;28;20063;-65
2022/01/29 00:55:14;;;;;;;4.85;2.55;;;;;;;-0.80;71.95;91184.69;5091010;28;20039;-65
2022/01/29 00:57:40;;;;;;;4.03;2.50;;;;;;;-0.99;74.05;91158.75;5091237;28;20047;-65
2022/01/29 01:00:08;;;;;;;3.95;2.40;;;;;;;-1.06;74.93;91165.97;5091132;28;20068;-65
2022/01/29 01:02:34;;;;;;;3.15;2.25;;;;;;;-1.14;76.59;91165.53;5090903;28;20066;-66
2022/01/29 01:04:59;;;;;;;3.78;2.40;;;;;;;-1.15;77.13;91182.22;5070897;28;20549;-65
2022/01/29 01:07:25;;;;;;;6.25;2.85;;;;;;;-1.25;78.12;91172.38;5075297;28;20028;-66
2022/01/29 01:09:50;;;;;;;4.15;2.45;;;;;;;-1.17;78.51;91181.66;5073316;28;20028;-66
2022/01/29 01:12:16;;;;;;;4.72;2.67;;;;;;;-1.19;80.07;91189.72;5070788;28;20031;-66
2022/01/29 01:14:41;;;;;;;3.50;2.75;;;;;;;-1.16;80.67;91178.03;5070714;28;20036;-66
2022/01/29 01:17:07;;;;;;;3.53;2.45;;;;;;;-1.14;80.83;91181.97;5070781;28;20086;-65
2022/01/29 01:19:33;;;;;;;4.72;2.70;;;;;;;-1.23;82.12;91180.78;5070813;28;20085;-65
2022/01/29 01:21:58;;;;;;;5.93;2.50;;;;;;;-1.24;83.89;91179.97;5070705;28;20033;-65
2022/01/29 01:24:24;;;;;;;4.88;2.85;;;;;;;-1.19;84.52;91166.22;5070685;28;20119;-64
2022/01/29 01:26:50;;;;;;;6.43;2.97;;;;;;;-1.13;83.83;91154.06;5070802;28;20056;-64
2022/01/29 01:29:16;;;;;;;4.22;2.63;;;;;;;-1.01;82.89;91166.03;5070730;28;20116;-65
2022/01/29 01:31:44;;;;;;;4.03;3.00;;;;;;;-0.99;82.88;91153.53;5070701;28;20028;-65
2022/01/29 01:34:15;;;;;;;4.15;2.58;;;;;;;-1.02;82.97;91155.84;5070443;28;20041;-65
2022/01/29 01:36:49;;;;;;;3.55;2.60;;;;;;;-0.88;80.71;91157.13;5070644;28;20075;-65
2022/01/29 01:39:18;;;;;;;4.18;2.58;;;;;;;-0.91;80.37;91139.34;5070535;28;20033;-65
2022/01/29 01:41:54;;;;;;;2.92;2.50;;;;;;;-0.85;79.56;91156.66;5070790;28;20037;-65
2022/01/29 01:44:20;;;;;;;3.67;2.67;;;;;;;-1.00;80.95;91148.56;5070646;28;20448;-65
2022/01/29 01:46:45;;;;;;;3.83;3.00;;;;;;;-1.03;82.54;91159.47;5070489;28;20025;-65
2022/01/29 01:49:11;;;;;;;4.00;2.70;;;;;;;-1.10;84.59;91151.78;5070490;28;20029;-65
2022/01/29 01:51:37;;;;;;;5.85;2.67;;;;;;;-1.10;85.74;91153.63;5070441;28;20025;-66
2022/01/29 01:54:03;;;;;;;8.82;5.35;;;;;;;-1.19;87.70;91150.56;5070187;28;20120;-65
2022/01/29 01:56:29;;;;;;;5.00;2.80;;;;;;;-1.18;86.92;91159.97;5070387;28;20387;-65
2022/01/29 01:58:57;;;;;;;4.68;3.03;;;;;;;-1.21;87.33;91155.22;5070410;28;20089;-65
2022/01/29 02:01:23;;;;;;;4.95;2.80;;;;;;;-1.24;88.96;91156.50;5070408;28;20044;-65
2022/01/29 02:03:49;;;;;;;6.25;2.80;;;;;;;-1.23;88.27;91149.44;5070338;28;20035;-65
2022/01/29 02:06:15;;;;;;;5.07;3.20;;;;;;;-1.24;89.43;91150.47;5086222;28;20048;-65
2022/01/29 02:08:41;;;;;;;8.55;3.33;;;;;;;-1.30;92.50;91154.00;5094211;28;20089;-65
2022/01/29 02:11:07;;;;;;;7.22;3.50;;;;;;;-1.33;92.73;91149.25;5094186;28;20118;-65
2022/01/29 02:13:33;;;;;;;4.97;3.05;;;;;;;-1.38;91.37;91141.34;5093978;28;20024;-65
2022/01/29 02:16:01;;;;;;;8.98;3.40;;;;;;;-1.35;93.19;91152.09;5094055;28;20024;-65
2022/01/29 02:18:26;;;;;;;5.38;3.22;;;;;;;-1.39;95.45;91144.97;5093927;28;20024;-65
2022/01/29 02:20:52;;;;;;;5.03;2.92;;;;;;;-1.38;96.43;91144.72;5093944;28;20031;-65
2022/01/29 02:23:18;;;;;;;11.25;4.28;;;;;;;-1.44;97.88;91144.84;5093853;28;20544;-65
2022/01/29 02:25:48;;;;;;;5.70;3.33;;;;;;;-1.43;98.34;91141.22;5093910;28;20034;-65
2022/01/29 02:28:22;;;;;;;4.43;3.10;;;;;;;-1.40;94.58;91132.94;5093803;28;20486;-65
2022/01/29 02:30:56;;;;;;;4.55;3.30;;;;;;;-1.30;92.93;91143.56;5093795;28;20482;-65
2022/01/29 02:33:21;;;;;;;;;;;;;;;-1.28;92.49;91139.69;5093963;28;20034;-65
2022/01/29 02:35:49;;;;;;;5.65;3.15;;;;;;;-1.35;93.77;91144.25;5093900;28;19916;-65
2022/01/29 02:38:17;;;;;;;5.88;3.50;;;;;;;-1.46;94.58;91121.59;5093705;28;20040;-65
2022/01/29 02:40:55;;;;;;;6.65;3.42;;;;;;;-1.28;93.04;91146.72;5093551;28;20035;-65
2022/01/29 02:43:25;;;;;;;4.38;3.17;;;;;;;-1.24;92.46;91140.84;5093455;28;20036;-65
2022/01/29 02:45:52;;;;;;;5.45;2.95;;;;;;;-1.12;87.93;91140.78;5093475;28;20107;-66
2022/01/29 02:48:20;;;;;;;5.30;2.60;;;;;;;-1.12;85.83;91138.16;5093465;28;20035;-65
2022/01/29 02:50:46;;;;;;;7.50;4.00;;;;;;;-1.07;85.24;91143.50;5093406;28;20020;-65
2022/01/29 02:53:12;;;;;;;5.60;3.40;;;;;;;-1.11;85.26;91139.75;5093202;28;20063;-65
2022/01/29 02:55:38;;;;;;;6.90;2.72;;;;;;;-1.13;84.56;91143.63;5093289;28;20048;-65
2022/01/29 02:58:03;;;;;;;4.93;2.60;;;;;;;-1.16;83.69;91150.09;5093772;28;20028;-65
2022/01/29 03:00:29;;;;;;;8.02;2.78;;;;;;;-1.16;83.62;91139.66;5095704;28;20036;-65
2022/01/29 03:02:55;;;;;;;3.50;2.38;;;;;;;-1.19;83.52;91140.13;5093098;28;20067;-65
2022/01/29 03:05:21;;;;;;;5.10;2.90;;;;;;;-1.15;82.55;91137.84;5233537;22;20484;-68
2022/01/29 03:07:46;;;;;;;4.75;3.20;;;;;;;-1.16;82.06;91142.25;5093213;28;20085;-68
2022/01/29 03:10:12;;;;;;;4.22;2.53;;;;;;;-1.25;83.46;91135.84;5093480;28;20035;-69
2022/01/29 03:12:40;;;;;;;4.70;2.80;;;;;;;-1.29;84.54;91140.72;5093209;28;20477;-69
2022/01/29 03:15:10;;;;;;;3.80;2.60;;;;;;;-1.33;86.22;91144.81;5093118;28;20047;-69
2022/01/29 03:17:35;;;;;;;5.22;2.67;;;;;;;-1.44;88.16;91137.03;5092788;28;20031;-69
2022/01/29 03:20:02;;;;;;;4.07;2.70;;;;;;;-1.47;88.89;91145.31;5092467;28;20032;-69
2022/01/29 03:22:27;;;;;;;5.28;2.90;;;;;;;-1.56;90.78;91118.81;5093262;28;20035;-69
2022/01/29 03:24:53;;;;;;;4.68;3.20;;;;;;;-1.44;90.86;91142.22;5092983;28;20023;-69
2022/01/29 03:27:18;;;;;;;4.85;3.30;;;;;;;-1.42;91.33;91146.22;5092923;28;20378;-69
2022/01/29 03:29:44;;;;;;;7.80;3.72;;;;;;;-1.46;91.27;91149.50;5092944;28;20128;-69
2022/01/29 03:32:09;;;;;;;5.22;3.15;;;;;;;-1.43;91.25;91144.63;5092851;28;20110;-69
2022/01/29 03:34:35;;;;;;;6.93;4.10;;;;;;;-1.36;89.92;91144.50;5091308;28;20032;-69
2022/01/29 03:37:01;;;;;;;5.63;3.50;;;;;;;-1.37;89.88;91155.97;5092784;28;20031;-70
2022/01/29 03:39:28;;;;;;;4.78;3.33;;;;;;;-1.42;89.40;91156.66;5091490;28;20036;-70
2022/01/29 03:41:59;;;;;;;5.55;3.38;;;;;;;-1.39;90.00;91171.06;5092796;28;20019;-70
2022/01/29 03:44:24;;;;;;;4.80;3.30;;;;;;;-1.41;90.82;91163.47;5092643;28;20043;-70
2022/01/29 03:46:50;;;;;;;4.30;3.08;;;;;;;-1.27;88.29;91169.19;5092658;28;20028;-70
2022/01/29 03:49:15;;;;;;;6.40;3.08;;;;;;;-1.17;87.40;91173.81;5092841;28;20492;-70
2022/01/29 03:51:40;;;;;;;3.85;3.15;;;;;;;-1.14;86.64;91163.72;5093419;28;20048;-71
2022/01/29 03:54:06;;;;;;;7.47;3.60;;;;;;;-1.08;86.66;91169.84;5092800;28;20477;-71
2022/01/29 03:56:31;;;;;;;7.28;3.67;;;;;;;-1.21;90.70;91178.72;5092308;28;20046;-70
2022/01/29 03:58:57;;;;;;;4.70;3.38;;;;;;;-1.23;92.98;91172.94;5092421;28;20058;-70
2022/01/29 04:01:22;;;;;;;7.20;3.95;;;;;;;-1.35;95.51;91161.75;5092411;28;20469;-70
2022/01/29 04:03:48;;;;;;;5.60;3.80;;;;;;;-1.28;95.65;91159.78;5092311;28;20449;-70
2022/01/29 04:06:13;;;;;;;5.30;3.67;;;;;;;-1.36;95.99;91165.38;5091961;28;20033;-70
2022/01/29 04:08:43;;;;;;;6.50;4.10;;;;;;;-1.44;97.41;91176.16;5092188;28;20497;-70
2022/01/29 04:11:11;;;;;;;5.53;3.53;;;;;;;-1.49;98.15;91170.84;5092139;28;20042;-70
2022/01/29 04:13:40;;;;;;;5.70;3.63;;;;;;;-1.48;98.31;91156.78;5092091;28;20028;-70
2022/01/29 04:16:06;;;;;;;6.43;3.55;;;;;;;-1.41;96.10;91153.03;5092010;28;20020;-70
2022/01/29 04:18:31;;;;;;;6.15;3.75;;;;;;;-1.30;92.96;91154.00;5092064;28;20085;-70
2022/01/29 04:20:57;;;;;;;4.88;3.70;;;;;;;-1.33;93.61;91165.69;5092020;28;20090;-70
2022/01/29 04:23:22;;;;;;;5.22;3.60;;;;;;;-1.44;94.99;91168.31;5091918;28;20058;-70
2022/01/29 04:25:51;;;;;;;7.10;4.00;;;;;;;-1.41;94.81;91168.69;5091851;28;20482;-70
2022/01/29 04:28:17;;;;;;;6.70;3.92;;;;;;;-1.51;94.28;91163.25;5091773;28;20039;-70
2022/01/29 04:30:49;;;;;;;6.22;4.05;;;;;;;-1.51;95.69;91164.03;5091646;28;20020;-70
2022/01/29 04:35:49;;;;;;;7.68;3.97;;;;;;;-1.57;97.04;91167.59;5091968;28;20032;-70
2022/01/29 04:38:14;;;;;;;4.88;3.47;;;;;;;-1.54;97.71;91168.94;5091654;28;20119;-70
2022/01/29 04:40:41;;;;;;;6.07;3.80;;;;;;;-1.68;99.40;91152.75;5091623;28;20496;-70
2022/01/29 04:43:06;;;;;;;10.82;3.67;;;;;;;-1.68;100.00;91178.81;5091607;28;20036;-70
2022/01/29 04:45:32;;;;;;;5.38;3.50;;;;;;;-1.77;100.00;91171.56;5091522;28;20035;-70
2022/01/29 04:47:58;;;;;;;6.28;4.05;;;;;;;-1.75;100.00;91182.56;5091509;28;20042;-70
2022/01/29 04:50:24;;;;;;;7.47;3.72;;;;;;;-1.77;100.00;91169.75;5091460;28;20531;-70
2022/01/29 04:52:49;;;;;;;89.32;34.75;;;;;;;-1.75;100.00;91185.94;5091379;28;20047;-70
2022/01/29 04:55:16;;;;;;;6.90;4.45;;;;;;;-1.77;100.00;91185.38;5091349;28;20030;-70
2022/01/29 04:57:41;;;;;;;9.13;5.55;;;;;;;-1.71;100.00;91176.66;5091226;28;20115;-70
2022/01/29 05:00:20;;;;;;;5.60;3.92;;;;;;;-1.65;100.00;91180.97;5091279;28;20119;-70
2022/01/29 05:02:51;;;;;;;13.23;5.90;;;;;;;-1.64;100.00;91174.72;5091381;28;20515;-70
2022/01/29 05:05:17;;;;;;;10.70;5.68;;;;;;;-1.53;99.30;91178.34;5091047;28;20105;-69
2022/01/29 05:07:42;;;;;;;9.00;4.95;;;;;;;-1.39;96.76;91173.66;5091280;28;20024;-70
2022/01/29 05:10:08;;;;;;;20.13;9.38;;;;;;;-1.37;95.62;91166.41;5091273;28;20028;-70
2022/01/29 05:12:58;;;;;;;13.75;7.00;;;;;;;-1.31;93.82;91168.88;5091111;28;20036;-69
2022/01/29 05:28:44;;;;;;;15.90;10.07;;;;;;;-1.27;90.45;91164.75;5091315;28;20063;-69
2022/01/29 05:31:09;;;;;;;11.15;5.95;;;;;;;-1.22;88.39;91169.31;5091044;28;20464;-69
2022/01/29 05:33:35;;;;;;;15.68;8.45;;;;;;;-1.19;88.33;91175.88;5091009;28;20405;-70
2022/01/29 05:36:00;;;;;;;13.18;6.97;;;;;;;-1.20;88.07;91175.09;5090776;28;20048;-69
2022/01/29 05:38:27;;;;;;;9.50;5.57;;;;;;;-1.19;88.03;91170.66;5090764;28;20111;-69
2022/01/29 05:40:54;;;;;;;6.75;3.92;;;;;;;-1.42;89.90;91166.28;5090796;28;20020;-70
2022/01/29 05:43:20;;;;;;;5.32;3.83;;;;;;;-1.52;92.40;91177.31;5094466;28;20024;-69
2022/01/29 05:45:45;;;;;;;14.82;8.00;;;;;;;-1.56;94.00;91179.59;5094631;28;20036;-70
2022/01/29 05:48:11;;;;;;;16.58;9.20;;;;;;;-1.43;91.80;91172.53;5094619;28;20032;-69
2022/01/29 05:50:36;;;;;;;10.05;6.93;;;;;;;-1.56;92.08;91161.34;5094622;28;20108;-69
2022/01/29 05:53:02;;;;;;;22.20;13.68;;;;;;;-1.49;90.93;91169.03;5093286;28;20024;-69
2022/01/29 05:55:27;;;;;;;23.17;12.75;;;;;;;-1.44;90.94;91184.78;5094602;28;20024;-69
2022/01/29 05:57:53;;;;;;;27.20;14.52;;;;;;;-1.28;89.88;91193.69;5094664;28;20411;-70
2022/01/29 06:00:18;;;;;;;31.92;16.58;;;;;;;-1.30;87.81;91193.16;5094568;28;20089;-69
2022/01/29 06:02:44;;;;;;;15.07;8.95;;;;;;;-1.44;90.40;91203.03;5094752;28;20028;-69
2022/01/29 06:05:10;;;;;;;8.00;5.40;;;;;;;-1.62;93.16;91206.59;5094211;28;20128;-69
2022/01/29 06:07:35;;;;;;;8.15;4.25;;;;;;;-1.72;93.38;91209.00;5094495;28;20526;-69
2022/01/29 06:10:01;;;;;;;16.15;8.13;;;;;;;-1.93;95.33;91197.31;5094485;28;20104;-69
2022/01/29 06:12:26;;;;;;;10.35;6.10;;;;;;;-2.00;96.81;91206.28;5094487;28;20063;-71
2022/01/29 06:14:52;;;;;;;13.73;6.63;;;;;;;-2.09;98.17;91200.59;5094338;28;20023;-71
2022/01/29 06:17:17;;;;;;;19.17;8.85;;;;;;;-2.11;100.00;91211.25;5094388;28;20024;-71
2022/01/29 06:19:43;;;;;;;9.43;4.72;;;;;;;-2.14;100.00;91203.88;5094349;28;20107;-70
2022/01/29 06:22:12;;;;;;;7.35;4.18;;;;;;;-2.06;100.00;91207.94;5094575;28;20059;-72
2022/01/29 06:24:37;;;;;;;7.18;5.55;;;;;;;-1.99;98.60;91213.84;5094143;28;20089;-70
2022/01/29 06:27:03;;;;;;;10.25;4.40;;;;;;;-1.81;97.21;91223.38;5094057;28;20032;-70
2022/01/29 06:29:29;;;;;;;8.65;5.35;;;;;;;-1.75;95.72;91222.47;5094077;28;20115;-70
2022/01/29 06:31:54;;;;;;;19.00;10.10;;;;;;;-1.75;94.79;91214.63;5094003;28;20028;-71
2022/01/29 06:34:19;;;;;;;23.73;13.15;;;;;;;-1.77;94.61;91216.69;5093621;28;20043;-70
2022/01/29 06:36:45;;;;;;;15.95;8.10;;;;;;;-1.71;94.95;91225.44;5093861;28;20031;-70
2022/01/29 06:39:10;;;;;;;13.80;7.38;;;;;;;-1.67;95.35;91218.72;5093861;28;20030;-70
2022/01/29 06:41:36;;;;;;;18.88;9.77;;;;;;;-1.51;96.35;91236.28;5093797;28;20032;-70
2022/01/29 06:44:01;;;;;;;34.10;17.67;;;;;;;-1.31;95.41;91234.09;5093485;28;20079;-70
2022/01/29 06:46:27;;;;;;;28.45;14.15;;;;;;;-1.14;91.41;91234.19;5093399;28;20028;-70
2022/01/29 06:48:53;;;;;;;32.10;14.27;;;;;;;-1.23;90.05;91228.53;5093581;28;20032;-70
2022/01/29 06:51:18;;;;;;;34.25;15.00;;;;;;;-1.15;89.61;91231.81;5093579;28;20024;-70
2022/01/29 06:53:44;;;;;;;18.98;8.50;;;;;;;-1.11;89.45;91227.69;5093267;28;20024;-70
2022/01/29 06:56:10;;;;;;;14.40;8.18;;;;;;;-1.10;89.16;91221.50;5093474;28;20096;-70
2022/01/29 06:58:36;;;;;;;19.38;10.98;;;;;;;-1.08;88.61;91238.50;5093438;28;20081;-70
2022/01/29 07:01:02;;;;;;;16.25;10.13;;;;;;;-1.18;88.82;91235.69;5093373;28;20044;-70
2022/01/29 07:03:28;;;;;;;13.02;8.10;;;;;;;-1.27;90.77;91243.06;5093309;28;20035;-70
2022/01/29 07:05:53;;;;;;;14.43;7.00;;;;;;;-1.35;92.74;91253.06;5092922;28;20039;-70
2022/01/29 07:08:19;;;;;;;9.60;6.43;;;;;;;-1.25;92.83;91250.69;5093170;28;20437;-71
2022/01/29 07:10:46;;;;;;;16.15;11.32;;;;;;;-1.22;93.93;91247.59;5071246;28;20068;-72
2022/01/29 07:13:12;;;;;;;65.75;23.67;;;;;;;-1.12;93.87;91249.63;5081856;28;20040;-70
2022/01/29 07:15:38;;;;;;;20.85;9.90;;;;;;;-1.09;94.09;91260.41;5092731;28;20028;-72
2022/01/29 07:18:04;;;;;;;8.82;5.20;;;;;;;-1.09;95.15;91257.81;5092280;28;20024;-70
2022/01/29 07:20:30;;;;;;;15.05;9.63;;;;;;;-0.92;95.84;91256.06;5092277;28;20109;-73
2022/01/29 07:22:55;;;;;;;15.40;8.60;;;;;;;-0.85;96.07;91260.34;5092338;28;20500;-73
2022/01/29 07:25:25;;;;;;;12.82;6.68;;;;;;;-0.74;93.58;91242.03;5091982;28;20394;-71
2022/01/29 07:27:51;;;;;;;45.55;19.15;;;;;;;-0.29;91.58;91248.31;5092728;28;20028;-70
2022/01/29 07:30:16;;;;;;;17.25;8.75;;;;;;;0.21;87.67;91253.59;5084312;28;20527;-70
2022/01/29 07:32:45;;;;;;;12.15;6.32;;;;;;;1.72;79.95;91243.44;5071885;28;20064;-69
2022/01/29 07:35:12;;;;;;;18.40;10.60;;;;;;;2.17;73.69;91239.66;5070990;28;20044;-69
2022/01/29 07:37:38;;;;;;;9.10;5.95;;;;;;;4.11;67.42;91241.41;5072999;28;20523;-69
2022/01/29 07:40:05;;;;;;;12.18;8.13;;;;;;;5.02;61.51;91225.53;5091954;28;20055;-69
2022/01/29 07:42:30;;;;;;;15.05;8.55;;;;;;;6.25;57.50;91241.66;5092265;28;20035;-70
2022/01/29 07:44:56;;;;;;;7.70;4.75;;;;;;;5.54;57.96;91232.25;5091196;28;20024;-69
2022/01/29 07:47:21;;;;;;;10.30;5.05;;;;;;;8.01;54.24;91240.22;5091829;28;20082;-70
2022/01/29 07:49:47;;;;;;;89.65;47.63;;;;;;;8.01;51.42;91245.50;5092115;28;20055;-69
2022/01/29 07:52:12;;;;;;;12.77;9.07;;;;;;;6.84;52.92;91254.72;5091570;28;20024;-71
2022/01/29 07:54:38;;;;;;;34.88;23.73;;;;;;;5.41;56.26;91259.19;5091285;28;20452;-70
2022/01/29 07:57:04;;;;;;;8.05;4.30;;;;;;;3.28;61.73;91260.59;5091652;28;20052;-70
2022/01/29 07:59:29;;;;;;;6.45;4.75;;;;;;;2.20;65.26;91259.38;5091322;28;20065;-71
2022/01/29 08:01:55;;;;;;;10.52;5.68;;;;;;;1.80;67.75;91244.84;5091344;28;20164;-70
2022/01/29 08:04:23;;;;;;;7.15;4.85;;;;;;;1.56;70.18;91248.78;5090781;28;20076;-70
2022/01/29 08:06:48;;;;;;;8.23;5.00;;;;;;;1.42;70.96;91254.44;5091315;28;20024;-71
2022/01/29 08:09:14;;;;;;;8.60;5.05;;;;;;;1.72;69.36;91243.44;5091001;28;20032;-71
2022/01/29 08:11:40;;;;;;;9.40;4.85;;;;;;;1.72;70.04;91242.66;5091640;28;20413;-70
2022/01/29 08:14:05;;;;;;;7.43;4.70;;;;;;;1.59;70.85;91232.59;5090843;28;20039;-70
2022/01/29 08:16:37;;;;;;;8.90;5.40;;;;;;;1.99;70.36;91224.28;5091536;28;20081;-71
2022/01/29 08:19:03;;;;;;;9.40;5.40;;;;;;;1.56;71.11;91243.53;5091595;28;20573;-70
2022/01/29 08:21:28;;;;;;;9.00;4.85;;;;;;;1.34;72.17;91240.94;5090863;28;20055;-70
2022/01/29 08:23:54;;;;;;;7.00;4.60;;;;;;;1.22;73.56;91243.69;5090807;28;20110;-70
2022/01/29 08:26:19;;;;;;;8.85;5.90;;;;;;;1.26;73.85;91251.84;5091221;28;20032;-69
2022/01/29 08:28:45;;;;;;;17.15;10.13;;;;;;;1.05;75.45;91253.44;5091114;28;20051;-71
2022/01/29 08:31:10;;;;;;;16.08;9.85;;;;;;;1.71;74.40;91248.94;5093418;28;20033;-71
2022/01/29 08:33:36;;;;;;;11.13;7.20;;;;;;;1.99;72.57;91261.81;5092733;28;20031;-71
2022/01/29 08:36:03;;;;;;;15.85;8.02;;;;;;;2.39;71.30;91250.09;5091780;28;20493;-71
2022/01/29 08:38:29;;;;;;;37.30;18.63;;;;;;;2.25;71.20;91256.81;5090918;28;20046;-70
2022/01/29 08:40:55;;;;;;;32.58;16.58;;;;;;;2.01;71.70;91259.72;5091123;28;20519;-70
2022/01/29 08:43:22;;;;;;;26.85;14.93;;;;;;;1.79;72.26;91257.19;5090490;28;20032;-70
2022/01/29 08:45:50;;;;;;;18.77;10.82;;;;;;;1.57;73.31;91259.03;5091128;28;20503;-72
2022/01/29 08:48:15;;;;;;;13.98;7.38;;;;;;;1.73;73.49;91260.75;5090809;28;20028;-71
2022/01/29 08:50:41;;;;;;;47.45;25.05;;;;;;;2.07;72.42;91257.97;5090639;28;20386;-71
2022/01/29 08:53:07;;;;;;;26.65;12.90;;;;;;;2.28;71.33;91256.28;5090569;28;20050;-70
2022/01/29 08:55:36;;;;;;;10.57;5.55;;;;;;;2.26;71.42;91282.78;5080891;28;20110;-70
2022/01/29 08:58:05;;;;;;;40.50;22.02;;;;;;;1.81;71.90;91272.66;5090627;28;20137;-71
2022/01/29 09:00:31;;;;;;;21.23;11.55;;;;;;;1.96;73.11;91287.75;5086338;28;20035;-70
2022/01/29 09:02:56;;;;;;;10.40;7.05;;;;;;;2.01;70.88;91285.97;5068884;28;20107;-70
2022/01/29 09:05:22;;;;;;;11.63;8.43;;;;;;;1.96;70.74;91287.75;5069760;28;20407;-70
2022/01/29 09:07:48;;;;;;;11.70;7.25;;;;;;;1.84;71.42;91282.66;5070177;28;20027;-69
2022/01/29 09:10:13;;;;;;;8.73;5.97;;;;;;;1.67;71.73;91289.81;5070451;28;20077;-71
2022/01/29 09:12:39;;;;;;;15.60;9.10;;;;;;;1.50;72.50;91293.31;5070042;28;20093;-69
2022/01/29 09:15:05;;;;;;;8.38;5.63;;;;;;;1.29;72.93;91291.50;5070085;28;20036;-71
2022/01/29 09:17:31;;;;;;;10.90;6.78;;;;;;;1.43;73.87;91295.34;5074314;28;20056;-70
2022/01/29 09:19:56;;;;;;;18.38;12.70;;;;;;;1.15;74.15;91290.25;5074671;28;20120;-70
2022/01/29 09:22:22;;;;;;;15.73;11.38;;;;;;;1.14;75.99;91281.59;5073496;28;20099;-72
2022/01/29 09:24:47;;;;;;;9.93;6.95;;;;;;;1.36;75.54;91286.06;5074154;28;20097;-69
2022/01/29 09:27:13;;;;;;;12.63;7.57;;;;;;;1.52;75.64;91298.31;5074583;28;20021;-69
2022/01/29 09:29:39;;;;;;;17.60;10.10;;;;;;;1.43;75.37;91295.34;5083857;28;20393;-70
2022/01/29 09:32:05;;;;;;;8.73;6.15;;;;;;;1.54;76.14;91292.81;5094454;28;20024;-70
2022/01/29 09:34:31;;;;;;;10.70;5.63;;;;;;;1.71;73.83;91290.91;5094317;28;20027;-70
2022/01/29 09:36:56;;;;;;;7.35;5.35;;;;;;;1.90;72.58;91279.06;5093426;28;20028;-70
2022/01/29 09:39:22;;;;;;;6.47;4.60;;;;;;;2.14;70.67;91290.03;5094378;28;20043;-70
2022/01/29 09:41:48;;;;;;;10.23;6.75;;;;;;;2.35;68.85;91270.78;5094248;28;20031;-70
2022/01/29 09:44:14;;;;;;;10.30;6.63;;;;;;;2.48;69.32;91280.06;5093490;28;20076;-72
2022/01/29 09:46:41;;;;;;;11.63;5.70;;;;;;;2.57;68.83;91285.66;5094436;28;20079;-70
2022/01/29 09:49:07;;;;;;;8.95;6.28;;;;;;;2.37;69.83;91281.06;5093974;28;20032;-71
2022/01/29 09:51:33;;;;;;;6.35;4.43;;;;;;;2.31;69.54;91276.78;5093781;28;20028;-71
2022/01/29 09:53:58;;;;;;;6.82;5.60;;;;;;;2.44;69.06;91279.00;5093476;28;20154;-72
2022/01/29 09:56:25;;;;;;;9.05;6.90;;;;;;;2.45;69.92;91277.16;5094292;28;20093;-72
2022/01/29 09:58:51;;;;;;;74.20;38.72;;;;;;;2.28;70.50;91277.28;5093786;28;20537;-74
2022/01/29 10:01:26;;;;;;;23.05;13.15;;;;;;;2.49;69.87;91279.03;5093893;28;20035;-74
2022/01/29 10:04:17;;;;;;;15.75;8.25;;;;;;;2.21;71.56;91282.75;5095156;28;20024;-72
2022/01/29 10:07:38;;;;;;;8.13;5.95;;;;;;;2.29;71.59;91284.13;5092860;28;20056;-64
2022/01/29 10:10:17;;;;;;;6.82;5.40;;;;;;;1.65;73.12;91286.66;5051888;28;20065;-63
2022/01/29 10:12:43;;;;;;;9.75;5.40;;;;;;;1.79;73.88;91290.47;5092419;28;20031;-61
2022/01/29 10:15:08;;;;;;;8.88;6.43;;;;;;;1.76;73.37;91296.22;5093168;28;20020;-62
2022/01/29 10:17:48;;;;;;;10.80;7.18;;;;;;;2.15;72.35;91282.94;5093878;28;20488;-61
2022/01/29 10:20:15;;;;;;;9.60;6.78;;;;;;;2.27;71.40;91286.22;5091272;28;20038;-62
2022/01/29 10:22:43;;;;;;;10.30;5.47;;;;;;;2.57;70.40;91275.16;5093078;28;20117;-62
2022/01/29 10:25:19;;;;;;;15.80;7.25;;;;;;;2.96;68.92;91254.66;5093413;28;20051;-62
2022/01/29 10:28:12;;;;;;;11.50;6.55;;;;;;;4.01;63.29;91281.66;5092273;28;20035;-62
2022/01/29 10:30:38;;;;;;;9.38;4.68;;;;;;;3.45;62.76;91275.41;5093338;28;20114;-62
2022/01/29 10:33:18;;;;;;;6.30;3.95;;;;;;;3.22;63.18;91282.66;5078647;28;20108;-63
2022/01/29 10:35:45;;;;;;;10.27;6.82;;;;;;;3.05;65.10;91271.53;5073238;28;20021;-65
2022/01/29 10:38:11;;;;;;;11.30;5.57;;;;;;;2.97;66.25;91272.78;5072880;28;20554;-65
2022/01/29 10:40:38;;;;;;;11.07;5.53;;;;;;;3.12;64.24;91279.97;5073252;28;20036;-66
2022/01/29 10:43:05;;;;;;;7.72;3.92;;;;;;;3.02;63.91;91269.44;5073266;28;20032;-66
2022/01/29 10:45:36;;;;;;;8.02;5.93;;;;;;;2.57;64.82;91275.16;5073237;28;20111;-66
2022/01/29 10:48:04;;;;;;;5.15;4.05;;;;;;;2.32;66.13;91270.50;5073140;28;20107;-65
2022/01/29 10:50:31;;;;;;;7.72;4.72;;;;;;;2.34;67.37;91278.91;5072916;28;20510;-65
2022/01/29 10:52:58;;;;;;;3.92;3.53;;;;;;;2.16;67.06;91274.81;5072735;28;20082;-73
2022/01/29 10:55:24;;;;;;;10.00;5.85;;;;;;;2.11;67.64;91280.03;5072984;28;20555;-71
2022/01/29 10:57:50;;;;;;;8.38;6.47;;;;;;;1.72;69.52;91284.63;5073139;28;20028;-73
2022/01/29 11:00:21;;;;;;;9.57;6.43;;;;;;;1.62;72.40;91287.16;5073039;28;20053;-74
2022/01/29 11:02:48;;;;;;;6.38;5.07;;;;;;;1.63;73.10;91279.03;5072870;28;20039;-72
2022/01/29 11:05:14;;;;;;;8.82;5.63;;;;;;;2.00;69.84;91288.84;5072701;28;20044;-72
2022/01/29 11:07:42;;;;;;;14.25;8.90;;;;;;;2.20;70.44;91280.34;5072441;28;20060;-72
2022/01/29 11:10:09;;;;;;;13.63;9.80;;;;;;;2.38;69.01;91282.66;5073029;28;20024;-72
2022/01/29 11:12:36;;;;;;;10.43;6.95;;;;;;;2.52;67.84;91289.03;5072842;28;20051;-71
2022/01/29 11:15:02;;;;;;;5.65;4.45;;;;;;;2.33;67.71;91285.19;5072779;28;20081;-72
2022/01/29 11:17:30;;;;;;;12.07;6.32;;;;;;;2.22;70.34;91280.94;5072803;28;20121;-71
2022/01/29 11:19:56;;;;;;;7.13;5.60;;;;;;;2.51;67.77;91278.78;5071396;28;20479;-71
2022/01/29 11:22:26;;;;;;;21.65;10.57;;;;;;;2.40;67.13;91285.81;5072655;28;20059;-71
2022/01/29 11:24:59;;;;;;;7.18;3.50;;;;;;;1.82;67.92;91282.09;5072662;28;20413;-71
2022/01/29 11:27:30;;;;;;;4.50;3.42;;;;;;;1.54;68.05;91279.69;5072775;28;20121;-71
2022/01/29 11:30:07;;;;;;;9.88;5.65;;;;;;;1.32;68.79;91274.47;5072648;28;20051;-72
2022/01/29 11:32:43;;;;;;;12.13;7.63;;;;;;;1.34;70.00;91278.44;5072537;28;20024;-71
2022/01/29 11:35:17;;;;;;;9.18;5.45;;;;;;;0.99;71.29;91275.38;5072219;28;20107;-71
2022/01/29 11:38:02;;;;;;;8.02;4.50;;;;;;;0.86;71.91;91266.84;5071217;28;20036;-71
2022/01/29 11:40:55;;;;;;;4.85;3.67;;;;;;;0.85;72.77;91264.47;5071353;28;20038;-71
2022/01/29 11:43:20;;;;;;;41.45;20.02;;;;;;;0.88;74.61;91263.97;5072310;28;20085;-71
2022/01/29 11:45:50;;;;;;;60.35;31.38;;;;;;;0.82;75.15;91268.34;5072247;28;20040;-72
2022/01/29 11:48:19;;;;;;;32.67;21.40;;;;;;;0.88;75.11;91272.63;5072295;28;20060;-72